createdAt,value
2023-11-24T00:00:54.430Z,5.60
2023-11-24T00:03:26.561Z,5.60
2023-11-24T00:05:58.586Z,5.60
2023-11-24T00:08:30.504Z,5.60
2023-11-24T00:11:03.972Z,5.70
2023-11-24T00:13:35.983Z,5.80
2023-11-24T00:16:09.522Z,5.80
2023-11-24T00:18:41.994Z,5.70
2023-11-24T00:21:13.965Z,5.70
2023-11-24T00:23:46.433Z,5.70
2023-11-24T00:26:19.992Z,5.70
2023-11-24T00:28:52.281Z,5.70
2023-11-24T00:31:26.211Z,5.70
2023-11-24T00:33:58.679Z,5.70
2023-11-24T00:36:31.127Z,5.70
2023-11-24T00:39:05.004Z,5.70
2023-11-24T00:41:37.001Z,5.70
2023-11-24T00:44:09.101Z,5.70
2023-11-24T00:46:40.940Z,5.70
2023-11-24T00:49:12.905Z,5.80
2023-11-24T00:54:15.005Z,5.80
2023-11-24T00:56:46.838Z,5.90
2023-11-24T00:59:18.968Z,6.00
2023-11-24T01:01:50.838Z,6.00
2023-11-24T01:04:24.132Z,6.00
2023-11-24T01:06:56.242Z,6.00
2023-11-24T01:09:28.153Z,6.00
2023-11-24T01:12:00.066Z,6.10
2023-11-24T01:14:33.427Z,6.10
2023-11-24T01:17:05.863Z,6.20
2023-11-24T01:19:38.592Z,6.20
2023-11-24T01:22:10.542Z,6.20
2023-11-24T01:24:42.567Z,6.20
2023-11-24T01:27:14.934Z,6.20
2023-11-24T01:29:46.808Z,6.20
2023-11-24T01:32:18.921Z,6.20
2023-11-24T01:34:50.811Z,6.20
2023-11-24T01:37:23.415Z,6.20
2023-11-24T01:39:55.437Z,6.10
2023-11-24T01:42:27.662Z,6.10
2023-11-24T01:44:59.595Z,6.10
2023-11-24T01:47:31.518Z,6.10
2023-11-24T01:50:04.563Z,6.10
2023-11-24T01:52:37.222Z,6.20
2023-11-24T01:55:13.258Z,6.20
2023-11-24T01:57:46.347Z,6.20
2023-11-24T02:00:19.671Z,6.20
2023-11-24T02:02:51.681Z,6.20
2023-11-24T02:05:23.817Z,6.30
2023-11-24T02:07:56.058Z,6.30
2023-11-24T02:10:29.576Z,6.30
2023-11-24T02:13:01.457Z,6.30
2023-11-24T02:15:33.504Z,6.30
2023-11-24T02:18:05.364Z,6.40
2023-11-24T02:20:38.730Z,6.50
2023-11-24T02:23:13.124Z,6.50
2023-11-24T02:25:45.037Z,6.50
2023-11-24T02:28:17.166Z,6.50
2023-11-24T02:30:49.397Z,6.50
2023-11-24T02:33:22.018Z,6.60
2023-11-24T02:35:54.764Z,6.50
2023-11-24T02:38:26.721Z,6.50
2023-11-24T02:40:58.727Z,6.60
2023-11-24T02:43:30.993Z,6.60
2023-11-24T02:46:02.945Z,6.60
2023-11-24T02:48:35.115Z,6.60
2023-11-24T02:51:09.114Z,6.60
2023-11-24T02:53:41.912Z,6.50
2023-11-24T02:56:14.722Z,6.50
2023-11-24T02:58:46.663Z,6.60
2023-11-24T03:01:18.656Z,6.60
2023-11-24T03:03:50.762Z,6.60
2023-11-24T03:06:23.929Z,6.60
2023-11-24T03:08:55.825Z,6.50
2023-11-24T03:11:27.756Z,6.50
2023-11-24T03:14:00.417Z,6.40
2023-11-24T03:16:32.329Z,6.50
2023-11-24T03:19:05.362Z,6.60
2023-11-24T03:21:38.030Z,6.50
2023-11-24T03:24:10.849Z,6.50
2023-11-24T03:26:43.197Z,6.50
2023-11-24T03:29:15.572Z,6.50
2023-11-24T03:31:47.982Z,6.60
2023-11-24T03:34:19.894Z,6.70
2023-11-24T03:36:52.632Z,6.70
2023-11-24T03:39:24.688Z,6.70
2023-11-24T03:41:57.553Z,6.70
2023-11-24T03:44:29.613Z,6.70
2023-11-24T03:47:01.638Z,6.80
2023-11-24T03:49:33.681Z,6.80
2023-11-24T03:52:06.844Z,6.80
2023-11-24T03:54:38.893Z,6.80
2023-11-24T03:57:11.136Z,6.70
2023-11-24T03:59:42.987Z,6.80
2023-11-24T04:02:15.126Z,6.80
2023-11-24T04:04:48.292Z,6.80
2023-11-24T04:07:20.618Z,6.80
2023-11-24T04:09:53.044Z,6.80
2023-11-24T04:12:25.703Z,6.80
2023-11-24T04:14:57.652Z,6.80
2023-11-24T04:17:29.610Z,6.90
2023-11-24T04:20:01.444Z,6.90
2023-11-24T04:22:34.486Z,6.90
2023-11-24T04:25:07.396Z,6.90
2023-11-24T04:27:39.500Z,6.90
2023-11-24T04:30:15.515Z,6.80
2023-11-24T04:32:47.567Z,6.80
2023-11-24T04:35:19.555Z,6.80
2023-11-24T04:37:52.161Z,6.80
2023-11-24T04:40:24.837Z,6.90
2023-11-24T04:42:56.971Z,6.90
2023-11-24T04:45:47.737Z,6.90
2023-11-24T04:48:19.853Z,6.80
2023-11-24T04:50:51.876Z,6.90
2023-11-24T04:53:23.768Z,6.80
2023-11-24T04:55:56.150Z,6.80
2023-11-24T04:58:28.311Z,6.80
2023-11-24T05:01:00.489Z,6.80
2023-11-24T05:03:33.014Z,6.80
2023-11-24T05:06:05.002Z,6.80
2023-11-24T05:08:38.098Z,6.70
2023-11-24T05:11:10.132Z,6.80
2023-11-24T05:13:42.110Z,6.80
2023-11-24T05:16:14.071Z,6.80
2023-11-24T05:18:46.091Z,6.80
2023-11-24T05:21:18.036Z,6.90
2023-11-24T05:23:50.105Z,6.90
2023-11-24T05:26:23.503Z,6.90
2023-11-24T05:28:55.493Z,6.90
2023-11-24T05:31:27.265Z,6.90
2023-11-24T05:34:00.604Z,6.90
2023-11-24T05:36:32.752Z,6.90
2023-11-24T05:39:06.510Z,6.90
2023-11-24T05:41:38.432Z,6.90
2023-11-24T05:44:10.496Z,6.90
2023-11-24T05:46:42.323Z,6.90
2023-11-24T05:49:16.178Z,6.80
2023-11-24T05:51:48.153Z,6.90
2023-11-24T05:54:20.024Z,6.80
2023-11-24T05:56:51.984Z,6.80
2023-11-24T05:59:24.425Z,6.90
2023-11-24T06:01:56.780Z,6.90
2023-11-24T06:04:29.030Z,6.80
2023-11-24T06:07:01.226Z,6.90
2023-11-24T06:09:34.184Z,6.80
2023-11-24T06:12:07.481Z,6.90
2023-11-24T06:14:49.656Z,6.90
2023-11-24T06:17:21.640Z,6.90
2023-11-24T06:19:54.260Z,6.90
2023-11-24T06:22:26.284Z,6.80
2023-11-24T06:24:58.332Z,6.80
2023-11-24T06:27:30.217Z,6.80
2023-11-24T06:33:40.988Z,6.80
2023-11-24T06:36:13.621Z,6.70
2023-11-24T06:38:45.419Z,6.70
2023-11-24T06:41:17.400Z,6.70
2023-11-24T06:43:49.407Z,6.70
2023-11-24T06:46:22.887Z,6.70
2023-11-24T06:48:54.929Z,6.70
2023-11-24T06:51:27.533Z,6.70
2023-11-24T06:53:59.350Z,6.70
2023-11-24T06:56:32.632Z,6.70
2023-11-24T06:59:04.410Z,6.70
2023-11-24T07:01:37.053Z,6.70
2023-11-24T07:04:09.522Z,6.80
2023-11-24T07:06:41.587Z,6.80
2023-11-24T07:09:13.505Z,6.80
2023-11-24T07:11:46.882Z,6.80
2023-11-24T07:14:18.864Z,7.00
2023-11-24T07:16:50.746Z,7.00
2023-11-24T07:19:23.833Z,7.10
2023-11-24T07:21:55.886Z,7.10
2023-11-24T07:24:29.138Z,7.20
2023-11-24T07:27:01.521Z,7.20
2023-11-24T07:29:34.734Z,7.30
2023-11-24T07:32:07.555Z,7.30
2023-11-24T07:34:39.647Z,7.30
2023-11-24T07:37:12.071Z,7.30
2023-11-24T07:39:46.376Z,7.30
2023-11-24T07:42:17.564Z,7.20
2023-11-24T07:44:49.691Z,7.20
2023-11-24T07:47:21.685Z,7.20
2023-11-24T07:49:53.643Z,7.10
2023-11-24T07:52:27.330Z,7.00
2023-11-24T07:54:59.372Z,7.00
2023-11-24T07:57:31.385Z,7.10
2023-11-24T08:13:13.872Z,7.30
2023-11-24T08:15:45.665Z,7.30
2023-11-24T08:18:17.648Z,7.30
2023-11-24T08:20:49.585Z,7.40
2023-11-24T08:23:22.566Z,7.40
2023-11-24T08:25:54.393Z,7.40
2023-11-24T08:28:26.290Z,7.30
2023-11-24T08:30:58.156Z,7.40
2023-11-24T08:33:30.113Z,7.30
2023-11-24T08:36:01.950Z,7.30
2023-11-24T08:38:33.905Z,7.30
2023-11-24T08:41:23.704Z,7.30
2023-11-24T08:43:48.378Z,7.20
2023-11-24T08:46:20.324Z,7.20
2023-11-24T08:48:52.360Z,7.40
2023-11-24T08:51:24.220Z,7.60
2023-11-24T08:53:56.055Z,7.80
2023-11-24T08:56:29.622Z,8.00
2023-11-24T08:59:01.830Z,8.10
2023-11-24T09:01:33.788Z,8.20
2023-11-24T09:04:06.265Z,8.40
2023-11-24T09:06:40.000Z,8.50
2023-11-24T09:09:13.581Z,8.50
2023-11-24T09:14:21.315Z,8.80
2023-11-24T09:16:53.316Z,8.90
2023-11-24T09:19:25.261Z,9.00
2023-11-24T09:22:00.120Z,9.00
2023-11-24T09:24:32.051Z,8.80
2023-11-24T09:27:04.622Z,8.70
2023-11-24T09:29:36.683Z,8.60
2023-11-24T09:32:09.528Z,8.60
2023-11-24T09:34:41.557Z,8.50
2023-11-24T09:37:13.615Z,8.40
2023-11-24T09:39:45.565Z,8.40
2023-11-24T09:42:19.936Z,8.40
2023-11-24T09:44:54.795Z,8.40
2023-11-24T09:47:27.374Z,8.40
2023-11-24T09:50:02.537Z,8.40
2023-11-24T09:52:34.717Z,8.50
2023-11-24T09:55:08.412Z,8.50
2023-11-24T09:57:41.626Z,8.50
2023-11-24T10:00:17.315Z,8.50
2023-11-24T10:02:50.075Z,8.50
2023-11-24T10:05:22.839Z,8.50
2023-11-24T10:07:54.851Z,8.60
2023-11-24T10:10:28.367Z,8.70
2023-11-24T10:13:03.317Z,8.70
2023-11-24T10:15:35.895Z,9.00
2023-11-24T10:18:10.973Z,9.30
2023-11-24T10:20:45.100Z,9.40
2023-11-24T10:23:18.409Z,9.60
2023-11-24T10:25:51.258Z,9.80
2023-11-24T10:28:23.114Z,10.00
2023-11-24T10:30:56.665Z,10.10
2023-11-24T10:33:35.302Z,10.00
2023-11-24T10:36:02.566Z,9.90
2023-11-24T10:38:36.311Z,9.90
2023-11-24T10:41:12.462Z,10.10
2023-11-24T10:43:44.884Z,10.00
2023-11-24T10:46:20.002Z,10.00
2023-11-24T10:48:55.106Z,10.20
2023-11-24T10:51:31.765Z,10.40
2023-11-24T10:54:05.725Z,10.50
2023-11-24T10:56:40.728Z,10.40
2023-11-24T10:59:16.016Z,10.40
2023-11-24T11:01:48.531Z,10.30
2023-11-24T11:04:23.336Z,10.20
2023-11-24T11:07:00.273Z,10.10
2023-11-24T11:09:35.298Z,9.90
2023-11-24T11:15:19.193Z,9.90
2023-11-24T11:18:08.863Z,9.90
2023-11-24T11:20:42.487Z,9.90
2023-11-24T11:23:16.613Z,9.80
2023-11-24T11:25:51.074Z,9.70
2023-11-24T11:28:54.303Z,9.70
2023-11-24T11:31:31.647Z,9.70
2023-11-24T11:34:18.264Z,9.80
2023-11-24T11:37:10.146Z,9.80
2023-11-24T11:39:47.034Z,9.90
2023-11-24T11:42:18.956Z,9.90
2023-11-24T11:44:57.652Z,9.90
2023-11-24T11:47:30.778Z,9.80
2023-11-24T11:50:06.489Z,9.80
2023-11-24T11:52:42.382Z,9.70
2023-11-24T11:55:14.414Z,9.60
2023-11-24T11:57:47.848Z,9.40
2023-11-24T12:00:40.214Z,9.20
2023-11-24T12:03:14.121Z,9.10
2023-11-24T12:05:48.476Z,9.00
2023-11-24T12:08:20.912Z,8.90
2023-11-24T12:10:53.162Z,8.80
2023-11-24T12:13:26.501Z,8.70
2023-11-24T12:16:00.952Z,8.70
2023-11-24T12:18:33.403Z,8.60
2023-11-24T12:21:09.286Z,8.50
2023-11-24T12:23:41.294Z,8.50
2023-11-24T12:26:13.154Z,8.40
2023-11-24T12:28:45.013Z,8.30
2023-11-24T12:31:16.941Z,8.20
2023-11-24T12:33:53.399Z,8.10
2023-11-24T12:36:26.520Z,8.10
2023-11-24T12:38:58.462Z,8.00
2023-11-24T12:41:30.338Z,8.00
2023-11-24T12:44:02.301Z,7.90
2023-11-24T12:46:34.447Z,7.90
2023-11-24T12:49:09.608Z,7.90
2023-11-24T12:51:44.674Z,7.80
2023-11-24T12:54:18.201Z,7.80
2023-11-24T12:56:50.014Z,7.80
2023-11-24T12:59:23.822Z,7.80
2023-11-24T13:01:56.084Z,7.80
2023-11-24T13:04:28.157Z,7.90
2023-11-24T13:07:00.235Z,8.00
2023-11-24T13:09:36.678Z,8.00
2023-11-24T13:12:17.926Z,8.00
2023-11-24T13:14:44.659Z,8.00
2023-11-24T13:17:16.601Z,8.00
2023-11-24T13:19:49.833Z,8.10
2023-11-24T13:22:22.608Z,8.10
2023-11-24T13:24:54.949Z,8.00
2023-11-24T13:27:26.731Z,8.00
2023-11-24T13:29:58.635Z,8.00
2023-11-24T13:32:30.586Z,8.00
2023-11-24T13:35:02.757Z,8.00
2023-11-24T13:37:34.630Z,8.00
2023-11-24T13:40:10.646Z,8.00
2023-11-24T13:42:43.018Z,8.00
2023-11-24T13:45:16.850Z,8.00
2023-11-24T13:47:49.189Z,8.00
2023-11-24T13:50:21.493Z,8.00
2023-11-24T13:52:58.081Z,8.00
2023-11-24T13:55:31.924Z,7.90
2023-11-24T13:58:04.457Z,7.90
2023-11-24T14:00:37.409Z,7.90
2023-11-24T14:03:09.386Z,7.80
2023-11-24T14:05:42.173Z,7.80
2023-11-24T14:08:14.051Z,7.70
2023-11-24T14:10:46.331Z,7.70
2023-11-24T14:13:18.363Z,7.60
2023-11-24T14:15:51.203Z,7.60
2023-11-24T14:18:23.375Z,7.50
2023-11-24T14:20:55.273Z,7.50
2023-11-24T14:23:27.266Z,7.50
2023-11-24T14:25:59.097Z,7.40
2023-11-24T14:28:31.045Z,7.40
2023-11-24T14:31:02.953Z,7.40
2023-11-24T14:33:35.602Z,7.30
2023-11-24T14:36:10.714Z,7.30
2023-11-24T14:38:43.115Z,7.20
2023-11-24T14:41:18.218Z,7.10
2023-11-24T14:43:51.164Z,7.10
2023-11-24T14:46:23.619Z,7.10
2023-11-24T14:48:55.635Z,7.10
2023-11-24T14:51:29.874Z,7.00
2023-11-24T14:54:01.765Z,7.00
2023-11-24T14:56:35.283Z,6.90
2023-11-24T14:59:07.314Z,6.90
2023-11-24T15:01:40.444Z,6.80
2023-11-24T15:04:17.703Z,6.80
2023-11-24T15:07:08.523Z,6.80
2023-11-24T15:09:41.968Z,6.80
2023-11-24T15:12:13.855Z,6.80
2023-11-24T15:14:48.229Z,6.80
2023-11-24T15:17:20.085Z,6.80
2023-11-24T15:19:53.454Z,6.80
2023-11-24T15:22:27.338Z,6.80
2023-11-24T15:24:59.654Z,6.70
2023-11-24T15:27:31.882Z,6.70
2023-11-24T15:30:03.935Z,6.70
2023-11-24T15:32:35.935Z,6.60
2023-11-24T15:35:08.590Z,6.60
2023-11-24T15:37:40.460Z,6.60
2023-11-24T15:40:15.705Z,6.50
2023-11-24T15:42:48.809Z,6.50
2023-11-24T15:45:20.922Z,6.40
2023-11-24T15:48:03.485Z,6.30
2023-11-24T15:50:30.748Z,6.20
2023-11-24T15:53:04.964Z,6.20
2023-11-24T15:55:38.551Z,6.10
2023-11-24T15:58:12.225Z,6.10
2023-11-24T16:00:48.775Z,6.30
2023-11-24T16:03:22.325Z,6.30
2023-11-24T16:05:55.976Z,6.30
2023-11-24T16:08:30.048Z,6.20
2023-11-24T16:11:03.563Z,6.20
2023-11-24T16:13:37.059Z,6.20
2023-11-24T16:16:10.527Z,6.20
2023-11-24T16:18:45.577Z,6.30
2023-11-24T16:21:17.736Z,6.30
2023-11-24T16:23:49.560Z,6.20
2023-11-24T16:26:21.713Z,6.10
2023-11-24T16:28:53.644Z,6.00
2023-11-24T16:31:25.640Z,5.90
2023-11-24T16:33:57.578Z,5.80
2023-11-24T16:36:29.700Z,5.60
2023-11-24T16:39:01.550Z,5.60
2023-11-24T16:41:34.099Z,5.50
2023-11-24T16:44:07.414Z,5.50
2023-11-24T16:46:41.143Z,5.50
2023-11-24T16:49:14.174Z,5.50
2023-11-24T16:51:46.526Z,5.50
2023-11-24T16:54:18.412Z,5.60
2023-11-24T16:56:50.564Z,5.60
2023-11-24T16:59:23.012Z,5.60
2023-11-24T17:01:57.390Z,5.70
2023-11-24T17:04:30.549Z,5.70
2023-11-24T17:07:04.071Z,5.60
2023-11-24T17:09:36.058Z,5.50
2023-11-24T17:12:09.922Z,5.40
2023-11-24T17:14:43.514Z,5.30
2023-11-24T17:17:16.124Z,5.20
2023-11-24T17:19:48.373Z,5.10
2023-11-24T17:22:38.947Z,5.00
2023-11-24T17:25:13.797Z,4.90
2023-11-24T17:27:45.935Z,4.90
2023-11-24T17:30:18.104Z,4.80
2023-11-24T17:32:50.121Z,4.80
2023-11-24T17:35:23.417Z,4.70
2023-11-24T17:37:55.336Z,4.70
2023-11-24T17:40:27.913Z,4.70
2023-11-24T17:42:59.909Z,4.70
2023-11-24T17:45:32.085Z,4.70
2023-11-24T17:48:05.878Z,4.60
2023-11-24T17:50:38.678Z,4.70
2023-11-24T17:53:10.708Z,4.70
2023-11-24T17:55:42.634Z,4.70
2023-11-24T17:58:14.506Z,4.70
2023-11-24T18:00:46.739Z,4.70
2023-11-24T18:03:18.968Z,4.70
2023-11-24T18:05:51.160Z,4.70
2023-11-24T18:08:23.864Z,4.60
2023-11-24T18:10:55.934Z,4.50
2023-11-24T18:13:28.504Z,4.60
2023-11-24T18:16:19.286Z,4.50
2023-11-24T18:18:51.137Z,4.60
2023-11-24T18:21:24.830Z,4.70
2023-11-24T18:23:56.715Z,4.70
2023-11-24T18:26:28.584Z,4.60
2023-11-24T18:29:02.242Z,4.50
2023-11-24T18:31:36.516Z,4.50
2023-11-24T18:34:09.646Z,4.50
2023-11-24T18:36:42.419Z,4.60
2023-11-24T18:39:14.402Z,4.60
2023-11-24T18:41:46.313Z,4.60
2023-11-24T18:44:18.615Z,4.70
2023-11-24T18:46:50.557Z,4.70
2023-11-24T18:49:22.567Z,4.60
2023-11-24T18:51:54.492Z,4.70
2023-11-24T18:54:26.700Z,4.70
2023-11-24T18:56:59.428Z,4.70
2023-11-24T18:59:32.048Z,4.60
2023-11-24T19:02:05.740Z,4.70
2023-11-24T19:04:38.139Z,4.70
2023-11-24T19:07:10.588Z,4.70
2023-11-24T19:09:42.661Z,4.70
2023-11-24T19:12:14.544Z,4.60
2023-11-24T19:14:46.428Z,4.50
2023-11-24T19:17:18.439Z,4.40
2023-11-24T19:19:50.514Z,4.30
2023-11-24T19:22:23.090Z,4.30
2023-11-24T19:24:55.711Z,4.30
2023-11-24T19:27:27.733Z,4.30
2023-11-24T19:29:59.978Z,4.20
2023-11-24T19:32:31.840Z,4.20
2023-11-24T19:35:07.414Z,4.20
2023-11-24T19:37:38.771Z,4.10
2023-11-24T19:40:13.201Z,4.10
2023-11-24T19:42:45.706Z,4.10
2023-11-24T19:45:17.928Z,4.00
2023-11-24T19:47:50.025Z,4.00
2023-11-24T19:50:22.111Z,4.00
2023-11-24T19:52:55.650Z,3.90
2023-11-24T19:55:27.575Z,4.00
2023-11-24T19:57:59.891Z,4.00
2023-11-24T20:00:32.450Z,4.00
2023-11-24T20:03:05.197Z,4.00
2023-11-24T20:05:37.691Z,3.90
2023-11-24T20:08:10.637Z,3.90
2023-11-24T20:10:42.612Z,3.90
2023-11-24T20:13:16.218Z,3.80
2023-11-24T20:15:59.115Z,3.90
2023-11-24T20:18:31.087Z,3.90
2023-11-24T20:21:03.284Z,3.90
2023-11-24T20:23:35.260Z,3.90
2023-11-24T20:26:07.786Z,3.80
2023-11-24T20:28:40.556Z,3.80
2023-11-24T20:31:13.704Z,3.80
2023-11-24T20:33:47.153Z,3.80
2023-11-24T20:36:21.366Z,3.70
2023-11-24T20:38:54.653Z,3.70
2023-11-24T20:41:26.611Z,3.70
2023-11-24T20:43:58.488Z,3.70
2023-11-24T20:46:31.307Z,3.70
2023-11-24T20:49:03.457Z,3.70
2023-11-24T20:51:35.266Z,3.60
2023-11-24T20:54:08.387Z,3.50
2023-11-24T20:56:40.688Z,3.60
2023-11-24T20:59:15.731Z,3.50
2023-11-24T21:01:48.066Z,3.60
2023-11-24T21:04:20.202Z,3.50
2023-11-24T21:06:53.831Z,3.60
2023-11-24T21:09:25.783Z,3.60
2023-11-24T21:11:58.083Z,3.60
2023-11-24T21:14:30.036Z,3.60
2023-11-24T21:17:02.441Z,3.60
2023-11-24T21:19:35.390Z,3.60
2023-11-24T21:22:08.195Z,3.60
2023-11-24T21:24:40.320Z,3.60
2023-11-24T21:27:12.818Z,3.60
2023-11-24T21:29:44.879Z,3.70
2023-11-24T21:32:17.759Z,3.70
2023-11-24T21:34:49.620Z,3.60
2023-11-24T21:37:23.171Z,3.60
2023-11-24T21:39:57.048Z,3.60
2023-11-24T21:42:29.302Z,3.50
2023-11-24T21:45:02.892Z,3.50
2023-11-24T21:47:34.940Z,3.50
2023-11-24T21:50:08.827Z,3.50
2023-11-24T21:52:40.646Z,3.60
2023-11-24T21:55:12.825Z,3.50
2023-11-24T21:57:44.591Z,3.50
2023-11-24T22:00:19.031Z,3.60
2023-11-24T22:02:51.285Z,3.60
2023-11-24T22:05:24.885Z,3.50
2023-11-24T22:07:56.870Z,3.50
2023-11-24T22:10:29.486Z,3.40
2023-11-24T22:13:03.087Z,3.50
2023-11-24T22:15:35.155Z,3.50
2023-11-24T22:18:07.595Z,3.50
2023-11-24T22:20:39.640Z,3.50
2023-11-24T22:23:11.741Z,3.50
2023-11-24T22:25:43.672Z,3.40
2023-11-24T22:28:15.671Z,3.50
2023-11-24T22:30:48.491Z,3.40
2023-11-24T22:33:20.522Z,3.40
2023-11-24T22:35:52.513Z,3.40
2023-11-24T22:38:24.535Z,3.30
2023-11-24T22:40:56.537Z,3.30
2023-11-24T22:43:28.576Z,3.30
2023-11-24T22:46:00.603Z,3.30
2023-11-24T22:48:32.575Z,3.30
2023-11-24T22:51:04.690Z,3.40
2023-11-24T22:53:36.607Z,3.30
2023-11-24T22:56:11.729Z,3.30
2023-11-24T22:58:43.664Z,3.30
2023-11-24T23:01:16.402Z,3.20
2023-11-24T23:03:48.582Z,3.20
2023-11-24T23:06:20.620Z,3.10
2023-11-24T23:08:53.494Z,3.10
2023-11-24T23:11:27.057Z,3.10
2023-11-24T23:14:00.352Z,3.10
2023-11-24T23:16:33.785Z,3.20
2023-11-24T23:19:06.026Z,3.10
2023-11-24T23:21:38.329Z,3.10
2023-11-24T23:24:12.280Z,3.20
2023-11-24T23:26:44.316Z,3.20
2023-11-24T23:29:16.348Z,3.10
2023-11-24T23:31:49.373Z,3.10
2023-11-24T23:34:22.319Z,3.20
2023-11-24T23:36:54.286Z,3.20
2023-11-24T23:39:26.464Z,3.20
2023-11-24T23:41:58.433Z,3.20
2023-11-24T23:44:30.441Z,3.20
2023-11-24T23:47:02.471Z,3.20
2023-11-24T23:49:34.442Z,3.20
2023-11-24T23:52:07.297Z,3.10
2023-11-24T23:54:40.549Z,3.10
2023-11-24T23:57:23.107Z,3.00
2023-11-24T23:59:54.941Z,3.10
